Time;durP1;ratioP1;P1;durP2;ratioP2;P2;SDS_P1;SDS_P2;PMS_P1;PMS_P2;Temp;Humidity;BMP_temperature;BMP_pressure;BME280_temperature;BME280_humidity;BME280_pressure;Samples;Min_cycle;Max_cycle;Signal;HPM_P1;HPM_P2
2020/12/23 00:01:09;;;;;;;15.18;8.23;;;19.20;54.70;;;;;;4997787;28;20038;-60
2020/12/23 00:03:35;;;;;;;17.10;9.38;;;19.30;54.80;;;;;;5004339;28;20026;-60
2020/12/23 00:06:00;;;;;;;14.40;8.13;;;19.20;54.70;;;;;;4999053;28;20408;-60
2020/12/23 00:08:26;;;;;;;14.35;8.38;;;19.20;54.80;;;;;;5002555;28;20027;-60
2020/12/23 00:10:51;;;;;;;12.18;7.90;;;19.20;54.80;;;;;;4997342;28;20784;-60
2020/12/23 00:13:17;;;;;;;13.15;8.02;;;19.20;54.80;;;;;;4989869;28;20043;-60
2020/12/23 00:15:42;;;;;;;12.82;8.43;;;19.20;54.70;;;;;;5005904;28;20106;-60
2020/12/23 00:18:08;;;;;;;12.38;7.72;;;19.20;54.80;;;;;;4996850;28;20045;-60
2020/12/23 00:20:33;;;;;;;13.00;7.45;;;19.20;54.70;;;;;;4996743;28;20540;-59
2020/12/23 00:22:59;;;;;;;13.50;7.32;;;19.20;54.70;;;;;;5007399;28;20045;-60
2020/12/23 00:25:24;;;;;;;10.68;7.25;;;19.20;54.70;;;;;;4993734;28;20042;-60
2020/12/23 00:27:50;;;;;;;13.27;7.43;;;19.30;54.80;;;;;;5007414;28;20076;-60
2020/12/23 00:30:17;;;;;;;14.90;7.10;;;19.30;54.80;;;;;;4995741;28;20026;-60
2020/12/23 00:32:42;;;;;;;12.32;6.80;;;19.30;54.70;;;;;;4996974;28;20056;-60
2020/12/23 00:35:08;;;;;;;11.52;6.90;;;19.30;54.80;;;;;;4992086;28;20042;-60
2020/12/23 00:37:33;;;;;;;10.48;6.55;;;19.30;54.70;;;;;;5008985;28;20560;-60
2020/12/23 00:39:59;;;;;;;12.60;7.20;;;19.30;54.80;;;;;;4997659;28;20049;-60
2020/12/23 00:42:24;;;;;;;10.20;6.32;;;19.30;54.70;;;;;;4989514;28;20030;-60
2020/12/23 00:44:50;;;;;;;14.25;6.97;;;19.30;54.70;;;;;;5007419;28;20520;-60
2020/12/23 00:47:15;;;;;;;9.43;6.05;;;19.30;54.80;;;;;;5001776;28;20042;-60
2020/12/23 00:49:41;;;;;;;10.93;6.75;;;19.30;54.70;;;;;;4996925;28;20073;-60
2020/12/23 00:52:06;;;;;;;11.30;6.53;;;19.30;54.70;;;;;;5005689;28;20018;-59
2020/12/23 00:54:32;;;;;;;13.98;6.57;;;19.30;54.70;;;;;;5000413;28;20034;-60
2020/12/23 00:56:57;;;;;;;9.00;5.57;;;19.30;55.30;;;;;;4999842;28;20451;-60
2020/12/23 00:59:23;;;;;;;11.40;6.25;;;19.30;54.70;;;;;;5008013;28;20688;-60
2020/12/23 01:01:48;;;;;;;9.25;6.25;;;19.30;54.70;;;;;;5005734;28;20038;-60
2020/12/23 01:04:14;;;;;;;11.82;6.90;;;19.30;54.70;;;;;;4989244;28;20032;-60
2020/12/23 01:06:39;;;;;;;8.57;5.32;;;19.30;54.60;;;;;;4997096;28;20499;-60
2020/12/23 01:09:05;;;;;;;11.27;5.97;;;19.30;54.70;;;;;;4998982;28;20026;-60
2020/12/23 01:11:30;;;;;;;9.68;5.20;;;19.30;54.70;;;;;;4997891;28;20057;-60
2020/12/23 01:13:56;;;;;;;8.05;5.45;;;19.30;54.70;;;;;;5002023;28;20444;-59
2020/12/23 01:16:21;;;;;;;8.82;5.47;;;19.30;54.70;;;;;;4991786;28;20041;-60
2020/12/23 01:18:47;;;;;;;8.77;5.82;;;19.40;54.70;;;;;;4998612;28;20037;-60
2020/12/23 01:21:13;;;;;;;9.05;5.25;;;19.30;54.70;;;;;;5001874;28;20527;-60
2020/12/23 01:23:38;;;;;;;9.43;5.18;;;19.30;54.60;;;;;;4997026;28;20029;-59
2020/12/23 01:26:04;;;;;;;8.55;5.68;;;19.30;54.60;;;;;;5007510;28;20056;-60
2020/12/23 01:28:29;;;;;;;12.30;6.05;;;19.30;54.60;;;;;;4999434;28;20033;-60
2020/12/23 01:30:55;;;;;;;7.15;4.97;;;19.40;54.70;;;;;;4997049;28;20038;-60
2020/12/23 01:33:20;;;;;;;9.07;5.03;;;19.30;54.60;;;;;;4992865;28;20026;-60
2020/12/23 01:35:46;;;;;;;7.57;5.03;;;19.40;54.70;;;;;;5005204;28;20467;-60
2020/12/23 01:38:11;;;;;;;8.10;4.93;;;19.40;54.60;;;;;;4991707;28;20504;-61
2020/12/23 01:40:37;;;;;;;7.72;4.78;;;19.30;54.60;;;;;;4990826;28;20041;-60
2020/12/23 01:43:02;;;;;;;8.07;4.75;;;19.30;54.60;;;;;;4999546;28;20029;-60
2020/12/23 01:45:27;;;;;;;8.55;5.15;;;19.40;54.60;;;;;;5007886;28;20539;-60
2020/12/23 01:47:56;;;;;;;7.65;4.80;;;19.40;54.70;;;;;;5007624;28;20025;-60
2020/12/23 01:50:21;;;;;;;7.95;4.70;;;19.40;54.70;;;;;;5001321;28;20034;-60
2020/12/23 01:52:47;;;;;;;9.23;4.95;;;19.40;54.70;;;;;;5003887;28;20400;-60
2020/12/23 01:55:12;;;;;;;5.43;4.18;;;19.40;54.60;;;;;;4995152;28;20130;-60
2020/12/23 01:57:38;;;;;;;9.45;5.55;;;19.40;54.60;;;;;;4988999;28;20038;-60
2020/12/23 02:00:04;;;;;;;7.53;4.70;;;19.40;55.20;;;;;;4989689;28;20413;-59
2020/12/23 02:02:31;;;;;;;6.95;4.25;;;19.40;54.60;;;;;;5006658;28;20041;-60
2020/12/23 02:04:58;;;;;;;6.57;3.78;;;19.40;54.60;;;;;;4990922;28;20080;-60
2020/12/23 02:07:24;;;;;;;7.07;4.10;;;19.40;54.60;;;;;;4995157;28;20109;-60
2020/12/23 02:09:50;;;;;;;7.60;4.88;;;19.40;54.60;;;;;;4996354;28;20113;-60
2020/12/23 02:12:16;;;;;;;7.60;4.10;;;19.40;54.50;;;;;;4995413;28;20018;-60
2020/12/23 02:14:42;;;;;;;7.43;4.15;;;19.40;54.40;;;;;;4987936;28;20413;-62
2020/12/23 02:17:07;;;;;;;7.60;4.55;;;19.40;54.40;;;;;;5004244;28;20045;-59
2020/12/23 02:19:33;;;;;;;7.20;4.28;;;19.40;54.40;;;;;;4993729;28;20034;-59
2020/12/23 02:21:59;;;;;;;5.10;3.42;;;19.40;54.40;;;;;;4993266;28;20111;-60
2020/12/23 02:24:24;;;;;;;5.90;3.63;;;19.40;54.30;;;;;;5005907;28;20492;-60
2020/12/23 02:26:50;;;;;;;5.90;4.05;;;19.40;54.20;;;;;;4997709;28;20034;-60
2020/12/23 02:29:16;;;;;;;5.90;3.80;;;19.40;54.20;;;;;;5005344;28;20017;-60
2020/12/23 02:31:41;;;;;;;5.13;3.58;;;19.50;54.20;;;;;;4995468;28;20027;-60
2020/12/23 02:34:07;;;;;;;6.05;3.42;;;19.40;54.20;;;;;;4991403;28;20432;-60
2020/12/23 02:36:32;;;;;;;5.97;3.72;;;19.40;54.20;;;;;;4999878;28;20022;-61
2020/12/23 02:38:58;;;;;;;6.15;3.15;;;19.40;54.20;;;;;;5002380;28;20096;-62
2020/12/23 02:41:23;;;;;;;4.88;3.50;;;19.50;54.20;;;;;;4991756;28;20505;-62
2020/12/23 02:43:49;;;;;;;5.93;3.55;;;19.50;54.20;;;;;;4997735;28;20037;-62
2020/12/23 02:46:14;;;;;;;6.18;3.67;;;19.50;54.20;;;;;;4999170;28;20034;-61
2020/12/23 02:48:40;;;;;;;5.65;3.42;;;19.40;54.10;;;;;;4998700;28;20505;-62
2020/12/23 02:51:05;;;;;;;4.90;3.53;;;19.40;54.20;;;;;;5010286;28;20034;-62
2020/12/23 02:53:31;;;;;;;5.07;3.35;;;19.40;54.20;;;;;;5002130;28;20057;-62
2020/12/23 02:55:56;;;;;;;4.82;3.45;;;19.40;54.10;;;;;;5008388;28;20687;-62
2020/12/23 02:58:22;;;;;;;5.15;3.70;;;19.40;54.20;;;;;;5005735;28;20038;-61
2020/12/23 03:00:47;;;;;;;5.95;3.28;;;19.40;54.20;;;;;;4991115;28;20057;-60
2020/12/23 03:03:15;;;;;;;4.72;3.47;;;19.40;54.30;;;;;;4991055;28;20498;-60
2020/12/23 03:05:41;;;;;;;5.10;3.30;;;19.40;54.30;;;;;;5006382;28;20034;-61
2020/12/23 03:08:06;;;;;;;5.07;3.53;;;19.40;54.40;;;;;;4998591;28;20041;-61
2020/12/23 03:10:32;;;;;;;4.03;2.83;;;19.40;54.40;;;;;;4996030;28;20562;-60
2020/12/23 03:12:57;;;;;;;5.85;3.42;;;19.40;54.40;;;;;;5006075;28;20074;-60
2020/12/23 03:15:23;;;;;;;5.10;3.28;;;19.40;54.40;;;;;;4996386;28;20079;-60
2020/12/23 03:17:48;;;;;;;6.53;3.35;;;19.40;54.40;;;;;;5008248;28;20404;-61
2020/12/23 03:20:14;;;;;;;4.47;3.08;;;19.40;55.10;;;;;;4996300;28;20057;-60
2020/12/23 03:22:39;;;;;;;4.97;2.95;;;19.40;54.40;;;;;;5000327;28;20057;-60
2020/12/23 03:25:05;;;;;;;3.65;2.90;;;19.40;54.40;;;;;;5005680;28;20463;-61
2020/12/23 03:27:30;;;;;;;5.03;2.55;;;19.40;54.40;;;;;;4990675;28;20026;-60
2020/12/23 03:29:56;;;;;;;5.88;3.08;;;19.40;54.50;;;;;;5001777;28;20397;-60
2020/12/23 03:32:21;;;;;;;4.28;2.90;;;19.40;54.50;;;;;;5005009;28;20026;-61
2020/12/23 03:34:47;;;;;;;5.35;3.28;;;19.40;54.60;;;;;;5001849;28;20026;-60
2020/12/23 03:37:12;;;;;;;5.18;2.70;;;19.40;54.50;;;;;;5008645;28;20515;-60
2020/12/23 03:39:38;;;;;;;4.78;3.05;;;19.40;54.60;;;;;;5010140;28;20045;-60
2020/12/23 03:42:03;;;;;;;6.22;3.08;;;19.40;54.50;;;;;;4994784;28;20176;-59
2020/12/23 03:44:29;;;;;;;4.68;2.50;;;19.40;54.50;;;;;;4997854;28;20033;-60
2020/12/23 03:46:54;;;;;;;4.85;2.95;;;19.40;54.50;;;;;;5006143;28;20049;-60
2020/12/23 03:49:20;;;;;;;4.10;2.78;;;19.40;55.10;;;;;;4990644;28;20529;-60
2020/12/23 03:51:46;;;;;;;3.55;2.33;;;19.40;54.50;;;;;;4990881;28;20041;-60
2020/12/23 03:54:11;;;;;;;3.28;2.30;;;19.40;54.60;;;;;;4999306;28;20034;-60
2020/12/23 03:56:37;;;;;;;3.38;2.40;;;19.40;54.50;;;;;;4990530;28;20043;-60
2020/12/23 03:59:02;;;;;;;3.28;2.15;;;19.40;54.50;;;;;;5009556;28;20520;-60
2020/12/23 04:01:28;;;;;;;4.38;2.50;;;19.30;54.50;;;;;;5004208;28;20040;-61
2020/12/23 04:03:53;;;;;;;3.67;1.98;;;19.40;54.60;;;;;;5000120;28;20034;-60
2020/12/23 04:06:19;;;;;;;3.58;2.33;;;19.40;54.60;;;;;;5002860;28;20524;-60
2020/12/23 04:08:44;;;;;;;4.57;2.55;;;19.30;54.50;;;;;;4990655;28;20109;-60
2020/12/23 04:11:11;;;;;;;2.90;2.15;;;19.30;54.50;;;;;;4997199;28;20101;-61
2020/12/23 04:13:36;;;;;;;3.60;2.42;;;19.30;54.60;;;;;;5005272;28;20484;-60
2020/12/23 04:16:02;;;;;;;3.45;2.53;;;19.40;54.60;;;;;;5000989;28;20036;-60
2020/12/23 04:18:27;;;;;;;3.60;2.85;;;19.30;54.50;;;;;;5009826;28;20041;-60
2020/12/23 04:20:53;;;;;;;4.70;2.35;;;19.30;54.50;;;;;;5005085;28;20037;-60
2020/12/23 04:23:18;;;;;;;3.67;2.30;;;19.30;54.60;;;;;;5001081;28;20041;-60
2020/12/23 04:25:44;;;;;;;3.95;2.60;;;19.30;54.50;;;;;;5017099;28;20030;-60
2020/12/23 04:28:09;;;;;;;3.13;2.40;;;19.30;54.50;;;;;;5003564;28;20428;-60
2020/12/23 04:30:34;;;;;;;3.15;2.20;;;19.40;54.50;;;;;;5000577;28;20026;-60
2020/12/23 04:33:00;;;;;;;4.00;2.05;;;19.30;54.60;;;;;;5007410;28;20022;-59
2020/12/23 04:35:27;;;;;;;4.07;2.25;;;19.30;54.40;;;;;;4989925;28;20068;-59
2020/12/23 04:37:53;;;;;;;4.10;2.33;;;19.40;54.40;;;;;;4993838;28;20404;-59
2020/12/23 04:40:18;;;;;;;2.90;1.85;;;19.40;54.40;;;;;;4995338;28;20030;-60
2020/12/23 04:42:44;;;;;;;3.72;1.92;;;19.40;54.40;;;;;;5005752;28;20030;-60
2020/12/23 04:45:09;;;;;;;3.67;2.10;;;19.30;54.30;;;;;;4987809;28;20088;-60
2020/12/23 04:47:36;;;;;;;3.65;2.13;;;19.30;54.30;;;;;;5003655;28;20034;-62
2020/12/23 04:50:01;;;;;;;3.80;2.20;;;19.40;54.30;;;;;;5006163;28;20021;-60
2020/12/23 04:52:34;;;;;;;3.13;2.00;;;19.40;54.40;;;;;;5001738;28;20022;-60
2020/12/23 04:55:00;;;;;;;4.00;1.90;;;19.40;54.30;;;;;;4997297;28;20030;-60
2020/12/23 04:57:26;;;;;;;3.22;2.10;;;19.40;54.30;;;;;;4989150;28;20030;-60
2020/12/23 04:59:52;;;;;;;3.50;1.90;;;19.40;54.40;;;;;;4994584;28;20788;-60
2020/12/23 05:02:17;;;;;;;2.20;1.48;;;19.40;54.30;;;;;;4999266;28;20036;-60
2020/12/23 05:04:42;;;;;;;3.83;2.55;;;19.40;54.30;;;;;;5008081;28;20041;-61
2020/12/23 05:07:08;;;;;;;2.67;1.77;;;19.40;54.20;;;;;;5007236;28;20029;-60
2020/12/23 05:09:33;;;;;;;3.20;2.08;;;19.40;54.40;;;;;;4996075;28;20053;-60
2020/12/23 05:11:59;;;;;;;2.47;1.77;;;19.40;54.30;;;;;;4999577;28;20023;-59
2020/12/23 05:14:25;;;;;;;2.65;2.05;;;19.40;54.20;;;;;;4989923;28;20023;-60
2020/12/23 05:16:51;;;;;;;3.63;1.95;;;19.40;54.30;;;;;;4995428;28;20536;-60
2020/12/23 05:19:17;;;;;;;6.68;1.85;;;19.30;54.20;;;;;;4996522;28;20057;-60
2020/12/23 05:21:43;;;;;;;2.95;1.73;;;19.40;54.30;;;;;;4988684;28;20030;-60
2020/12/23 05:24:09;;;;;;;3.55;2.08;;;19.30;54.20;;;;;;5004207;28;20030;-60
2020/12/23 05:26:35;;;;;;;6.75;2.20;;;19.30;54.20;;;;;;4996045;28;20037;-65
2020/12/23 05:29:01;;;;;;;2.53;1.50;;;19.40;54.20;;;;;;4995019;28;20026;-60
2020/12/23 05:31:26;;;;;;;3.45;1.83;;;19.30;54.20;;;;;;4989750;28;20037;-60
2020/12/23 05:33:52;;;;;;;3.55;1.83;;;19.30;54.20;;;;;;5006526;28;20455;-60
2020/12/23 05:36:18;;;;;;;3.47;1.75;;;19.40;54.30;;;;;;4991406;28;20540;-60
2020/12/23 05:38:43;;;;;;;2.10;1.60;;;19.40;54.30;;;;;;4989630;28;20048;-60
2020/12/23 05:41:11;;;;;;;3.63;1.63;;;19.40;54.20;;;;;;4989357;28;20034;-60
2020/12/23 05:43:37;;;;;;;2.63;1.80;;;19.30;54.20;;;;;;5007434;28;20032;-60
2020/12/23 05:46:04;;;;;;;2.08;1.33;;;19.40;54.20;;;;;;4991613;28;20030;-59
2020/12/23 05:48:31;;;;;;;2.05;1.45;;;19.40;54.20;;;;;;4998247;28;20041;-60
2020/12/23 05:50:56;;;;;;;4.18;1.30;;;19.40;54.20;;;;;;4998942;28;20079;-59
2020/12/23 05:53:21;;;;;;;2.28;1.55;;;19.40;54.20;;;;;;5007511;28;20688;-62
2020/12/23 05:55:50;;;;;;;3.50;1.35;;;19.40;54.20;;;;;;4988982;28;20744;-60
2020/12/23 05:58:29;;;;;;;2.13;1.25;;;19.30;54.30;;;;;;4996297;28;20038;-60
2020/12/23 06:01:05;;;;;;;1.98;1.13;;;19.40;54.30;;;;;;5000920;28;20034;-59
2020/12/23 06:03:55;;;;;;;2.17;1.23;;;19.30;54.30;;;;;;4998730;28;20072;-60
2020/12/23 06:06:27;;;;;;;2.00;1.23;;;19.30;54.20;;;;;;5001819;28;20033;-59
2020/12/23 06:08:54;;;;;;;2.20;1.50;;;19.40;54.30;;;;;;5001721;28;20034;-60
2020/12/23 06:11:27;;;;;;;3.78;1.70;;;19.30;54.20;;;;;;4987200;28;20030;-59
2020/12/23 06:14:06;;;;;;;2.15;1.30;;;19.40;54.20;;;;;;5003997;28;20022;-60
2020/12/23 06:16:41;;;;;;;2.13;1.60;;;19.30;54.20;;;;;;4987042;28;20637;-60
2020/12/23 06:19:10;;;;;;;;;;;19.30;54.20;;;;;;4996187;28;20023;-60
2020/12/23 06:21:36;;;;;;;2.03;1.40;;;19.30;54.20;;;;;;4993947;28;19910;-60
2020/12/23 06:24:06;;;;;;;1.75;1.13;;;19.30;54.30;;;;;;4992037;28;20041;-60
2020/12/23 06:26:36;;;;;;;2.40;1.20;;;19.30;54.20;;;;;;5004367;28;20014;-60
2020/12/23 06:29:05;;;;;;;2.00;1.20;;;19.30;54.40;;;;;;5007329;28;20026;-60
2020/12/23 06:31:47;;;;;;;1.83;1.20;;;19.30;54.30;;;;;;4982570;28;20019;-58
2020/12/23 06:34:17;;;;;;;2.70;1.25;;;19.30;54.20;;;;;;4999959;28;20088;-60
2020/12/23 06:36:43;;;;;;;2.25;1.40;;;19.30;54.20;;;;;;4992432;28;20034;-59
2020/12/23 06:39:31;;;;;;;2.22;1.30;;;19.30;54.20;;;;;;5010427;28;20077;-60
2020/12/23 06:41:59;;;;;;;2.28;1.63;;;19.30;54.20;;;;;;4992228;28;20022;-59
2020/12/23 06:44:25;;;;;;;1.98;1.15;;;19.30;54.30;;;;;;5004603;28;20053;-60
2020/12/23 06:46:59;;;;;;;2.75;1.90;;;19.30;54.30;;;;;;5001080;28;20073;-60
2020/12/23 06:49:42;;;;;;;1.67;1.23;;;19.30;54.30;;;;;;5003736;28;20027;-60
2020/12/23 06:52:31;;;;;;;1.95;1.50;;;19.30;54.20;;;;;;4999137;28;20673;-60
2020/12/23 06:55:02;;;;;;;1.30;1.10;;;19.30;54.20;;;;;;4996142;28;20080;-60
2020/12/23 06:57:37;;;;;;;3.13;1.65;;;19.30;54.30;;;;;;4998091;28;20511;-60
2020/12/23 07:00:24;;;;;;;2.17;1.10;;;19.30;54.30;;;;;;4991705;28;20037;-60
2020/12/23 07:02:58;;;;;;;2.50;1.42;;;19.30;54.30;;;;;;5007897;28;20034;-59
2020/12/23 07:05:24;;;;;;;2.10;1.77;;;19.30;54.30;;;;;;4995875;28;20022;-60
2020/12/23 07:07:56;;;;;;;1.60;1.13;;;19.20;54.30;;;;;;4992317;28;20089;-61
2020/12/23 07:10:23;;;;;;;1.85;1.20;;;19.30;54.40;;;;;;4991147;28;20046;-59
2020/12/23 07:12:53;;;;;;;1.90;1.30;;;19.20;54.40;;;;;;4993590;28;20029;-59
2020/12/23 07:15:22;;;;;;;3.15;1.30;;;19.20;54.40;;;;;;5009583;28;20684;-60
2020/12/23 07:17:49;;;;;;;2.72;1.30;;;19.20;54.40;;;;;;5000358;28;20030;-60
2020/12/23 07:20:15;;;;;;;2.60;1.42;;;19.20;54.40;;;;;;5005423;28;20073;-61
2020/12/23 07:22:42;;;;;;;2.75;1.35;;;19.20;54.50;;;;;;4993993;28;20030;-61
2020/12/23 07:25:08;;;;;;;2.13;1.30;;;19.20;54.50;;;;;;4989367;28;20034;-61
2020/12/23 07:27:33;;;;;;;2.67;1.52;;;19.20;54.50;;;;;;4998842;28;20536;-60
2020/12/23 07:30:08;;;;;;;3.13;1.50;;;19.20;54.50;;;;;;4996797;28;20042;-61
2020/12/23 07:32:33;;;;;;;2.67;1.23;;;19.20;54.50;;;;;;4996844;28;20380;-61
2020/12/23 07:34:59;;;;;;;3.85;1.20;;;19.20;54.50;;;;;;4997784;28;20283;-61
2020/12/23 07:37:26;;;;;;;3.75;1.30;;;19.20;54.50;;;;;;4990271;28;20113;-61
2020/12/23 07:39:51;;;;;;;5.22;1.88;;;19.20;54.50;;;;;;5005729;28;20034;-61
2020/12/23 07:42:18;;;;;;;5.03;1.50;;;19.20;54.50;;;;;;4996807;28;20076;-60
2020/12/23 07:44:51;;;;;;;9.38;1.90;;;19.20;54.60;;;;;;4997772;28;20034;-60
2020/12/23 07:47:21;;;;;;;6.63;1.98;;;19.20;54.60;;;;;;5004612;28;20022;-59
2020/12/23 07:49:58;;;;;;;2.88;1.23;;;19.20;54.60;;;;;;5005376;28;20022;-60
2020/12/23 07:52:23;;;;;;;6.82;1.90;;;19.20;54.60;;;;;;4998474;28;20026;-61
2020/12/23 07:54:49;;;;;;;4.72;1.90;;;19.20;54.60;;;;;;5004715;28;20053;-61
2020/12/23 07:57:29;;;;;;;5.95;2.17;;;19.10;54.60;;;;;;5000718;28;20038;-60
2020/12/23 08:00:05;;;;;;;7.72;2.65;;;19.20;54.60;;;;;;5005664;28;20046;-61
2020/12/23 08:02:30;;;;;;;5.38;2.30;;;19.10;54.60;;;;;;4989907;28;20037;-61
2020/12/23 08:04:56;;;;;;;8.80;2.97;;;19.20;54.60;;;;;;5004847;28;20029;-60
2020/12/23 08:07:24;;;;;;;6.90;2.42;;;19.10;54.60;;;;;;4996672;28;20575;-60
2020/12/23 08:09:50;;;;;;;8.00;3.58;;;19.20;54.70;;;;;;4999737;28;20107;-61
2020/12/23 08:12:19;;;;;;;5.53;2.75;;;19.10;54.60;;;;;;4986990;28;20026;-60
2020/12/23 08:14:45;;;;;;;7.68;3.60;;;19.10;54.70;;;;;;4991085;28;20046;-60
2020/12/23 08:17:21;;;;;;;3.90;3.33;;;19.10;54.60;;;;;;5006813;28;20054;-60
2020/12/23 08:20:01;;;;;;;7.80;4.03;;;19.10;54.60;;;;;;5009683;28;20067;-60
2020/12/23 08:22:26;;;;;;;4.80;3.28;;;19.10;54.60;;;;;;5005239;28;20105;-58
2020/12/23 08:28:02;;;;;;;6.88;3.38;;;19.10;55.30;;;;;;5005580;28;20116;-61
2020/12/23 08:30:32;;;;;;;8.63;4.30;;;19.10;54.60;;;;;;4988237;28;20704;-61
2020/12/23 08:33:07;;;;;;;11.68;5.75;;;19.10;54.70;;;;;;4993648;28;20030;-61
2020/12/23 08:35:37;;;;;;;16.45;7.22;;;19.10;54.80;;;;;;5006000;28;20033;-62
2020/12/23 08:38:03;;;;;;;16.85;7.63;;;19.10;54.80;;;;;;4989770;28;20038;-61
2020/12/23 08:40:28;;;;;;;15.32;8.00;;;19.10;54.80;;;;;;5005246;28;20463;-61
2020/12/23 08:42:58;;;;;;;16.27;8.40;;;19.10;54.80;;;;;;4999297;28;20041;-60
2020/12/23 08:45:25;;;;;;;17.80;9.23;;;19.10;54.80;;;;;;5001929;28;20105;-61
2020/12/23 08:47:51;;;;;;;22.05;9.60;;;19.10;54.60;;;;;;4994772;28;20021;-63
2020/12/23 08:50:17;;;;;;;25.77;12.80;;;19.10;54.70;;;;;;4988873;28;20080;-63
2020/12/23 08:52:50;;;;;;;36.95;19.02;;;19.10;54.70;;;;;;4996392;28;20149;-63
2020/12/23 08:55:23;;;;;;;51.47;22.20;;;19.10;54.80;;;;;;4954982;28;20022;-62
2020/12/23 08:57:49;;;;;;;52.58;23.85;;;19.20;54.90;;;;;;5006726;28;20609;-62
2020/12/23 09:00:18;;;;;;;54.92;26.58;;;19.20;55.00;;;;;;5003017;28;20037;-62
2020/12/23 09:02:48;;;;;;;64.40;29.10;;;19.20;55.10;;;;;;5002573;28;20038;-62
2020/12/23 09:05:26;;;;;;;69.18;29.42;;;19.20;55.20;;;;;;4965422;28;20042;-62
2020/12/23 09:08:08;;;;;;;64.68;30.75;;;19.20;55.30;;;;;;4992030;28;20069;-62
2020/12/23 09:10:37;;;;;;;69.18;29.42;;;19.30;55.40;;;;;;4988115;28;20010;-62
2020/12/23 09:13:12;;;;;;;70.72;28.77;;;19.30;55.50;;;;;;4986548;28;20022;-63
2020/12/23 09:15:39;;;;;;;70.05;30.52;;;19.30;55.60;;;;;;4986993;28;20518;-62
2020/12/23 09:18:12;;;;;;;65.20;27.88;;;19.30;55.60;;;;;;4987675;28;20042;-63
2020/12/23 09:20:38;;;;;;;59.22;27.70;;;19.30;55.60;;;;;;4987704;28;20073;-62
2020/12/23 09:23:04;;;;;;;60.22;28.65;;;19.40;55.80;;;;;;4986661;28;20033;-62
2020/12/23 09:25:31;;;;;;;58.80;27.52;;;19.40;55.70;;;;;;4987548;28;20037;-63
2020/12/23 09:28:05;;;;;;;62.35;27.05;;;19.40;55.70;;;;;;4987260;28;20413;-62
2020/12/23 09:30:36;;;;;;;60.95;27.65;;;19.30;55.70;;;;;;4988628;28;20022;-62
2020/12/23 09:33:02;;;;;;;63.55;25.35;;;19.30;55.90;;;;;;4987402;28;20030;-61
2020/12/23 09:35:28;;;;;;;58.42;25.40;;;19.40;55.70;;;;;;4986135;28;20025;-63
2020/12/23 09:38:06;;;;;;;63.97;25.15;;;19.40;56.00;;;;;;4987547;28;20061;-62
2020/12/23 09:40:31;;;;;;;54.20;25.70;;;19.40;56.10;;;;;;4986856;28;20053;-62
2020/12/23 09:42:57;;;;;;;52.67;23.05;;;19.30;55.90;;;;;;4987565;28;20061;-61
2020/12/23 09:45:22;;;;;;;48.58;22.50;;;19.40;56.10;;;;;;4993649;28;20050;-63
2020/12/23 09:47:48;;;;;;;52.70;23.38;;;19.40;55.90;;;;;;4986768;28;20530;-62
2020/12/23 09:50:13;;;;;;;58.17;24.50;;;19.40;56.00;;;;;;4986966;28;20018;-62
2020/12/23 09:52:39;;;;;;;57.35;22.02;;;19.40;55.90;;;;;;4986991;28;20061;-63
2020/12/23 09:55:07;;;;;;;47.05;20.40;;;19.40;56.10;;;;;;4986906;28;20114;-62
2020/12/23 09:57:32;;;;;;;52.50;22.95;;;19.40;55.90;;;;;;4986768;28;20030;-63
2020/12/23 09:59:57;;;;;;;49.72;21.67;;;19.40;56.00;;;;;;4986563;28;20030;-62
2020/12/23 10:02:23;;;;;;;47.78;19.90;;;19.40;56.00;;;;;;4986824;28;20033;-62
2020/12/23 10:04:48;;;;;;;54.08;20.23;;;19.40;55.90;;;;;;4986713;28;20129;-62
2020/12/23 10:07:14;;;;;;;47.95;20.35;;;19.40;55.90;;;;;;4986844;28;20037;-62
2020/12/23 10:09:40;;;;;;;48.67;19.38;;;19.40;56.00;;;;;;4987257;28;20433;-61
2020/12/23 10:12:06;;;;;;;50.50;19.02;;;19.40;56.00;;;;;;4986548;28;20030;-62
2020/12/23 10:14:31;;;;;;;39.20;17.50;;;19.40;55.90;;;;;;4986647;28;20041;-61
2020/12/23 10:16:57;;;;;;;51.45;18.38;;;19.40;56.10;;;;;;4986950;28;20037;-62
2020/12/23 10:19:22;;;;;;;37.92;16.55;;;19.40;55.80;;;;;;4986984;28;20034;-62
2020/12/23 10:21:47;;;;;;;43.20;17.70;;;19.40;55.90;;;;;;4986149;28;20125;-62
2020/12/23 10:24:13;;;;;;;38.20;17.55;;;19.40;55.80;;;;;;4987760;28;20026;-62
2020/12/23 10:26:38;;;;;;;39.70;16.83;;;19.40;55.90;;;;;;4988495;28;20150;-62
2020/12/23 10:32:30;;;;;;;34.85;15.30;;;19.40;55.80;;;;;;4989455;28;20065;-63
2020/12/23 10:34:55;;;;;;;37.00;14.55;;;19.40;55.70;;;;;;4986960;28;20064;-61
2020/12/23 10:37:22;;;;;;;29.42;14.35;;;19.40;55.70;;;;;;4986591;28;20023;-62
2020/12/23 10:39:48;;;;;;;33.65;13.70;;;19.40;55.80;;;;;;4984167;28;20019;-63
2020/12/23 10:42:14;;;;;;;35.58;13.30;;;19.40;55.80;;;;;;4983115;28;20034;-62
2020/12/23 10:44:39;;;;;;;23.15;12.80;;;19.40;56.50;;;;;;4964363;28;20026;-61
2020/12/23 10:47:05;;;;;;;26.27;13.43;;;19.40;56.70;;;;;;4980950;28;20073;-62
2020/12/23 10:49:30;;;;;;;28.02;12.20;;;19.40;56.80;;;;;;5006022;28;20493;-62
2020/12/23 10:51:56;;;;;;;27.90;12.85;;;19.50;56.80;;;;;;5006530;28;20385;-62
2020/12/23 10:54:23;;;;;;;24.00;11.95;;;19.50;57.10;;;;;;5006968;28;20552;-62
2020/12/23 10:56:48;;;;;;;27.58;11.93;;;19.40;57.10;;;;;;5006849;28;20026;-62
2020/12/23 10:59:14;;;;;;;21.20;11.43;;;19.40;57.00;;;;;;5007158;28;20033;-61
2020/12/23 11:01:39;;;;;;;23.67;10.60;;;19.50;57.30;;;;;;4982889;28;20575;-61
2020/12/23 11:04:05;;;;;;;25.40;11.48;;;19.50;57.40;;;;;;5006815;28;20037;-62
2020/12/23 11:06:30;;;;;;;24.52;11.77;;;19.50;57.30;;;;;;5006685;28;20038;-62
2020/12/23 11:08:56;;;;;;;25.02;10.73;;;19.50;57.20;;;;;;5005641;28;20041;-62
2020/12/23 11:11:22;;;;;;;19.63;10.43;;;19.50;57.30;;;;;;4969565;28;20042;-62
2020/12/23 11:13:47;;;;;;;26.38;10.32;;;19.50;57.30;;;;;;5017632;28;20030;-62
2020/12/23 11:16:17;;;;;;;17.55;10.05;;;19.50;57.40;;;;;;5007571;28;20036;-63
2020/12/23 11:18:42;;;;;;;25.80;10.77;;;19.60;57.30;;;;;;5007665;28;20037;-62
2020/12/23 11:21:08;;;;;;;24.75;9.95;;;19.70;57.30;;;;;;5007431;28;20447;-62
2020/12/23 11:23:34;;;;;;;17.05;9.45;;;19.60;57.10;;;;;;5008177;28;20056;-61
2020/12/23 11:25:59;;;;;;;23.38;10.05;;;19.60;57.20;;;;;;5009627;28;20481;-62
2020/12/23 11:28:25;;;;;;;15.98;8.50;;;19.60;57.10;;;;;;5010696;28;20029;-62
2020/12/23 11:30:51;;;;;;;18.52;9.40;;;19.60;56.90;;;;;;5010134;28;20022;-62
2020/12/23 11:33:16;;;;;;;22.95;9.05;;;19.60;56.90;;;;;;4134360;28;10000401;-62
2020/12/23 11:35:42;;;;;;;15.90;8.25;;;19.60;56.80;;;;;;5028347;28;20028;-63
2020/12/23 11:38:07;;;;;;;12.88;6.60;;;19.60;56.80;;;;;;5026974;28;20049;-62
2020/12/23 11:40:33;;;;;;;11.38;7.32;;;19.60;56.70;;;;;;4983041;28;20057;-62
2020/12/23 11:42:58;;;;;;;16.08;7.22;;;19.60;56.90;;;;;;5026457;28;20049;-61
2020/12/23 11:45:24;;;;;;;12.82;6.85;;;19.60;56.70;;;;;;5026532;28;20106;-62
2020/12/23 11:47:49;;;;;;;13.40;6.10;;;19.60;56.80;;;;;;5028311;28;20088;-62
2020/12/23 11:50:15;;;;;;;14.50;6.63;;;19.60;56.70;;;;;;5029056;28;20111;-63
2020/12/23 11:52:41;;;;;;;13.45;6.10;;;19.60;56.70;;;;;;5027628;28;20021;-61
2020/12/23 11:55:06;;;;;;;13.85;6.25;;;19.60;56.50;;;;;;5027909;28;20697;-62
2020/12/23 11:57:31;;;;;;;12.15;6.43;;;19.60;56.60;;;;;;5026803;28;20051;-62
2020/12/23 11:59:57;;;;;;;20.13;6.88;;;19.60;56.60;;;;;;5026915;28;20618;-57
2020/12/23 12:02:22;;;;;;;12.73;5.88;;;19.60;56.70;;;;;;5026864;28;20033;-63
2020/12/23 12:04:48;;;;;;;15.75;6.60;;;19.60;56.60;;;;;;5024953;28;20028;-62
2020/12/23 12:07:13;;;;;;;15.68;7.43;;;19.60;56.80;;;;;;5024856;28;21354;-63
2020/12/23 12:09:39;;;;;;;18.75;10.73;;;19.60;56.60;;;;;;5027006;28;20037;-61
2020/12/23 12:12:04;;;;;;;20.77;12.52;;;19.60;56.70;;;;;;5008539;28;20116;-61
2020/12/23 12:14:30;;;;;;;17.92;13.00;;;19.60;56.80;;;;;;5006644;28;20030;-61
2020/12/23 12:16:56;;;;;;;22.42;14.40;;;19.60;57.00;;;;;;5007068;28;20103;-60
2020/12/23 12:19:21;;;;;;;26.67;14.30;;;19.60;57.10;;;;;;5006583;28;20034;-64
2020/12/23 12:21:47;;;;;;;23.38;13.68;;;19.50;56.90;;;;;;5006792;28;20544;-61
2020/12/23 12:24:12;;;;;;;20.63;12.82;;;19.50;57.00;;;;;;5006366;28;20030;-61
2020/12/23 12:26:38;;;;;;;16.48;12.20;;;19.50;56.80;;;;;;5006460;28;25111;-61
2020/12/23 12:29:04;;;;;;;20.27;13.25;;;19.50;56.90;;;;;;5006474;28;20712;-61
2020/12/23 12:31:29;;;;;;;17.33;12.30;;;19.50;56.70;;;;;;5006001;28;20034;-64
2020/12/23 12:33:55;;;;;;;18.00;12.27;;;19.50;56.70;;;;;;5006406;28;20800;-63
2020/12/23 12:36:21;;;;;;;14.68;11.70;;;19.50;56.70;;;;;;5006303;28;20041;-63
2020/12/23 12:38:47;;;;;;;19.88;12.65;;;19.50;56.80;;;;;;5006763;28;20038;-63
2020/12/23 12:41:12;;;;;;;12.85;10.88;;;19.50;57.00;;;;;;5005822;28;20080;-63
2020/12/23 12:43:38;;;;;;;25.52;15.40;;;19.50;57.10;;;;;;5006410;28;20164;-62
2020/12/23 12:46:07;;;;;;;56.90;30.27;;;19.50;57.10;;;;;;5006445;28;20042;-62